createdAt,value
2022-07-29T00:04:04.950Z,16.64
2022-07-29T00:09:05.922Z,16.65
2022-07-29T00:14:06.835Z,16.61
2022-07-29T00:19:08.748Z,16.50
2022-07-29T00:24:09.781Z,16.48
2022-07-29T00:29:33.750Z,16.31
2022-07-29T00:34:50.642Z,16.31
2022-07-29T00:39:51.355Z,16.22
2022-07-29T00:44:51.949Z,16.12
2022-07-29T00:49:53.900Z,16.03
2022-07-29T00:54:54.824Z,15.97
2022-07-29T00:59:55.443Z,15.92
2022-07-29T01:04:58.713Z,15.77
2022-07-29T01:10:00.530Z,15.77
2022-07-29T01:15:02.141Z,15.66
2022-07-29T01:20:12.378Z,15.66
2022-07-29T01:25:40.599Z,15.59
2022-07-29T01:30:46.371Z,15.53
2022-07-29T01:35:48.045Z,15.48
2022-07-29T01:40:53.296Z,15.49
2022-07-29T01:46:01.365Z,15.47
2022-07-29T01:51:07.683Z,15.41
2022-07-29T01:56:10.985Z,15.40
2022-07-29T02:01:15.374Z,15.28
2022-07-29T02:06:20.716Z,15.33
2022-07-29T02:11:21.532Z,15.34
2022-07-29T02:16:25.901Z,15.34
2022-07-29T02:21:29.029Z,15.30
2022-07-29T02:26:31.253Z,15.29
2022-07-29T02:31:36.336Z,15.29
2022-07-29T02:36:36.975Z,15.30
2022-07-29T02:41:43.191Z,15.27
2022-07-29T02:46:50.125Z,15.18
2022-07-29T02:51:56.068Z,15.23
2022-07-29T02:57:00.739Z,15.16
2022-07-29T03:02:04.393Z,15.17
2022-07-29T03:07:07.028Z,15.19
2022-07-29T03:12:08.378Z,15.16
2022-07-29T03:17:12.003Z,15.11
2022-07-29T03:22:13.109Z,15.09
2022-07-29T03:27:13.862Z,15.13
2022-07-29T03:32:15.772Z,15.15
2022-07-29T03:37:24.577Z,15.11
2022-07-29T03:42:33.837Z,15.11
2022-07-29T03:47:50.307Z,15.12
2022-07-29T03:52:51.934Z,15.03
2022-07-29T03:57:53.026Z,14.99
2022-07-29T04:02:54.979Z,15.00
2022-07-29T04:07:55.605Z,15.00
2022-07-29T04:12:56.222Z,15.09
2022-07-29T04:17:58.224Z,15.15
2022-07-29T04:22:58.836Z,15.22
2022-07-29T04:28:02.497Z,15.34
2022-07-29T04:33:06.359Z,15.48
2022-07-29T04:38:15.612Z,15.65
2022-07-29T04:43:22.439Z,15.87
2022-07-29T04:48:28.654Z,15.99
2022-07-29T04:53:29.792Z,15.99
2022-07-29T04:58:30.399Z,15.97
2022-07-29T05:03:32.403Z,16.00
2022-07-29T05:08:33.063Z,16.23
2022-07-29T05:13:45.218Z,16.38
2022-07-29T05:18:48.120Z,16.29
2022-07-29T05:23:49.802Z,16.52
2022-07-29T05:28:50.562Z,16.71
2022-07-29T05:33:52.471Z,16.75
2022-07-29T05:38:53.313Z,16.76
2022-07-29T05:43:53.934Z,16.59
2022-07-29T05:48:56.219Z,16.89
2022-07-29T05:53:56.868Z,17.22
2022-07-29T05:58:57.501Z,17.39
2022-07-29T06:03:59.728Z,17.62
2022-07-29T06:09:00.342Z,17.77
2022-07-29T06:14:13.618Z,18.03
2022-07-29T06:19:15.790Z,17.76
2022-07-29T06:24:17.493Z,18.34
2022-07-29T06:29:18.512Z,18.81
2022-07-29T06:34:20.561Z,19.21
2022-07-29T06:39:21.621Z,19.44
2022-07-29T06:44:22.353Z,19.29
2022-07-29T06:49:27.027Z,19.57
2022-07-29T06:54:27.676Z,19.72
2022-07-29T06:59:35.119Z,20.13
2022-07-29T07:04:37.691Z,20.26
2022-07-29T07:09:40.554Z,20.16
2022-07-29T07:14:44.731Z,20.42
2022-07-29T07:19:47.129Z,20.99
2022-07-29T07:24:47.735Z,21.37
2022-07-29T07:30:46.426Z,20.86
2022-07-29T07:35:48.422Z,21.50
2022-07-29T07:40:49.102Z,21.76
2022-07-29T07:45:49.755Z,21.76
2022-07-29T07:51:04.961Z,22.10
2022-07-29T07:56:11.071Z,22.25
2022-07-29T08:01:13.428Z,21.86
2022-07-29T08:06:15.392Z,22.08
2022-07-29T08:11:16.025Z,22.75
2022-07-29T08:16:16.971Z,23.52
2022-07-29T08:21:19.842Z,23.91
2022-07-29T08:26:21.811Z,24.10
2022-07-29T08:31:22.520Z,24.39
2022-07-29T08:36:24.812Z,24.81
2022-07-29T08:41:25.759Z,25.25
2022-07-29T08:46:26.851Z,25.52
2022-07-29T08:51:29.794Z,25.29
2022-07-29T08:56:30.981Z,25.62
2022-07-29T09:01:42.772Z,25.98
2022-07-29T09:06:49.380Z,26.14
2022-07-29T09:11:50.117Z,26.73
2022-07-29T09:16:56.156Z,27.37
2022-07-29T09:22:03.000Z,28.02
2022-07-29T09:27:04.450Z,28.33
2022-07-29T09:32:08.498Z,28.35
2022-07-29T09:37:10.587Z,28.92
2022-07-29T09:42:11.252Z,29.00
2022-07-29T09:47:12.396Z,29.16
2022-07-29T09:52:14.312Z,29.13
2022-07-29T09:57:30.597Z,29.32
2022-07-29T10:02:33.782Z,29.22
2022-07-29T10:07:53.713Z,29.45
2022-07-29T10:12:57.521Z,29.39
2022-07-29T10:18:01.741Z,29.70
2022-07-29T10:23:04.377Z,29.83
2022-07-29T10:28:07.551Z,29.26
2022-07-29T10:33:19.660Z,28.67
2022-07-29T10:38:45.682Z,28.70
2022-07-29T10:43:48.634Z,28.90
2022-07-29T10:49:09.788Z,28.86
2022-07-29T10:54:13.261Z,29.31
2022-07-29T10:59:36.197Z,29.41
2022-07-29T11:05:01.161Z,29.37
2022-07-29T11:10:30.966Z,29.32
2022-07-29T11:15:55.573Z,29.19
2022-07-29T11:20:56.208Z,29.03
2022-07-29T11:26:18.918Z,29.02
2022-07-29T11:31:33.605Z,29.30
2022-07-29T11:36:35.001Z,29.23
2022-07-29T11:41:38.182Z,29.23
2022-07-29T11:46:47.326Z,29.25
2022-07-29T11:51:53.060Z,29.50
2022-07-29T11:56:55.903Z,29.94
2022-07-29T12:02:12.010Z,29.77
2022-07-29T12:07:20.277Z,29.86
2022-07-29T12:12:23.036Z,30.49
2022-07-29T12:17:30.518Z,30.47
2022-07-29T12:22:33.344Z,31.05
2022-07-29T12:27:35.450Z,31.29
2022-07-29T12:32:43.422Z,30.98
2022-07-29T12:37:46.120Z,30.97
2022-07-29T12:43:10.242Z,30.69
2022-07-29T12:48:11.084Z,30.37
2022-07-29T12:53:14.437Z,30.68
2022-07-29T12:58:27.256Z,30.58
2022-07-29T13:03:28.000Z,30.89
2022-07-29T13:08:29.783Z,30.99
2022-07-29T13:13:31.783Z,30.49
2022-07-29T13:18:34.510Z,30.67
2022-07-29T13:23:38.459Z,30.94
2022-07-29T13:28:40.983Z,30.87
2022-07-29T13:33:44.939Z,30.96
2022-07-29T13:38:45.667Z,31.19
2022-07-29T13:43:47.662Z,30.76
2022-07-29T13:48:51.596Z,30.49
2022-07-29T13:53:52.279Z,30.52
2022-07-29T13:58:54.267Z,30.47
2022-07-29T14:03:55.059Z,30.24
2022-07-29T14:08:56.900Z,30.91
2022-07-29T14:13:58.938Z,31.73
2022-07-29T14:18:59.578Z,31.06
2022-07-29T14:24:00.366Z,31.18
2022-07-29T14:29:02.305Z,31.28
2022-07-29T14:34:03.175Z,31.09
2022-07-29T14:39:03.929Z,31.27
2022-07-29T14:44:06.375Z,31.37
2022-07-29T14:49:07.540Z,32.02
2022-07-29T14:54:10.478Z,32.13
2022-07-29T14:59:12.451Z,32.44
2022-07-29T15:04:13.131Z,32.39
2022-07-29T15:09:13.830Z,32.38
2022-07-29T15:14:15.913Z,31.28
2022-07-29T15:19:17.036Z,30.32
2022-07-29T15:24:17.924Z,30.25
2022-07-29T15:29:19.992Z,29.93
2022-07-29T15:34:21.507Z,29.43
2022-07-29T15:39:22.891Z,29.29
2022-07-29T15:44:24.811Z,29.75
2022-07-29T15:49:31.363Z,29.62
2022-07-29T15:54:49.506Z,29.46
2022-07-29T15:59:51.941Z,29.07
2022-07-29T16:04:52.674Z,28.72
2022-07-29T16:09:53.532Z,28.36
2022-07-29T16:14:55.541Z,28.26
2022-07-29T16:19:56.170Z,28.15
2022-07-29T16:24:56.746Z,28.12
2022-07-29T16:29:58.695Z,28.08
2022-07-29T16:35:02.838Z,27.88
2022-07-29T16:40:04.829Z,27.70
2022-07-29T16:45:07.970Z,27.41
2022-07-29T16:50:09.630Z,27.32
2022-07-29T16:55:10.460Z,27.13
2022-07-29T17:00:14.917Z,27.01
2022-07-29T17:05:15.779Z,26.87
2022-07-29T17:10:16.404Z,26.94
2022-07-29T17:15:19.362Z,26.93
2022-07-29T17:20:19.983Z,26.95
2022-07-29T17:25:21.457Z,26.92
2022-07-29T17:30:23.645Z,26.93
2022-07-29T17:35:42.108Z,26.78
2022-07-29T17:40:43.333Z,26.51
2022-07-29T17:45:49.407Z,26.29
2022-07-29T17:50:51.791Z,26.15
2022-07-29T17:55:52.465Z,26.01
2022-07-29T18:00:54.500Z,25.89
2022-07-29T18:05:55.243Z,25.77
2022-07-29T18:10:55.949Z,25.63
2022-07-29T18:16:00.475Z,25.66
2022-07-29T18:21:01.941Z,25.41
2022-07-29T18:26:02.706Z,25.22
2022-07-29T18:31:05.119Z,25.09
2022-07-29T18:36:11.556Z,24.88
2022-07-29T18:41:12.536Z,24.73
2022-07-29T18:46:14.599Z,24.53
2022-07-29T18:51:15.272Z,24.43
2022-07-29T18:56:17.150Z,24.24
2022-07-29T19:01:19.147Z,24.25
2022-07-29T19:06:24.048Z,23.98
2022-07-29T19:11:26.316Z,23.82
2022-07-29T19:16:28.340Z,23.73
2022-07-29T19:21:29.729Z,23.58
2022-07-29T19:26:30.369Z,23.55
2022-07-29T19:31:32.475Z,23.58
2022-07-29T19:36:33.649Z,23.43
2022-07-29T19:41:34.486Z,23.43
2022-07-29T19:46:36.605Z,23.27
2022-07-29T19:51:38.029Z,23.28
2022-07-29T19:56:40.115Z,23.21
2022-07-29T20:01:44.348Z,23.21
2022-07-29T20:06:45.196Z,23.19
2022-07-29T20:11:45.856Z,23.20
2022-07-29T20:16:47.796Z,23.12
2022-07-29T20:21:48.510Z,23.13
2022-07-29T20:26:50.524Z,23.09
2022-07-29T20:31:53.464Z,22.96
2022-07-29T20:36:57.443Z,22.80
2022-07-29T20:41:58.964Z,22.71
2022-07-29T20:47:01.334Z,22.67
2022-07-29T20:52:02.155Z,22.56
2022-07-29T20:57:02.995Z,22.40
2022-07-29T21:02:05.401Z,22.27
2022-07-29T21:07:06.189Z,22.21
2022-07-29T21:12:07.920Z,22.05
2022-07-29T21:17:10.275Z,22.06
2022-07-29T21:22:10.996Z,21.97
2022-07-29T21:27:29.215Z,21.93
2022-07-29T21:32:31.169Z,21.92
2022-07-29T21:37:32.082Z,21.83
2022-07-29T21:42:32.738Z,21.86
2022-07-29T21:47:34.744Z,21.86
2022-07-29T21:52:35.714Z,21.86
2022-07-29T21:57:38.186Z,21.93
2022-07-29T22:02:40.504Z,21.82
2022-07-29T22:07:54.575Z,21.83
2022-07-29T22:12:58.265Z,21.91
2022-07-29T22:18:00.563Z,21.95
2022-07-29T22:23:01.181Z,21.96
2022-07-29T22:28:01.788Z,21.99
2022-07-29T22:33:03.812Z,21.92
2022-07-29T22:38:04.468Z,21.83
2022-07-29T22:43:05.143Z,21.76
2022-07-29T22:48:07.541Z,21.77
2022-07-29T22:53:08.295Z,21.70
2022-07-29T22:58:08.920Z,21.65
2022-07-29T23:03:10.867Z,21.64
2022-07-29T23:08:11.552Z,21.69
2022-07-29T23:13:12.278Z,21.60
2022-07-29T23:18:14.481Z,21.65
2022-07-29T23:23:15.081Z,21.64
2022-07-29T23:28:15.822Z,21.43
2022-07-29T23:33:17.767Z,21.43
2022-07-29T23:38:18.370Z,21.51
2022-07-29T23:43:18.986Z,21.28
2022-07-29T23:48:21.229Z,21.30
2022-07-29T23:53:21.863Z,21.46
2022-07-29T23:58:22.490Z,21.40
